createdAt,value
2018-10-01T00:00:39.644Z,1010.59
2018-10-01T00:01:39.668Z,1010.56
2018-10-01T00:02:39.689Z,1010.56
2018-10-01T00:03:39.715Z,1010.55
2018-10-01T00:04:39.742Z,1010.55
2018-10-01T00:05:39.762Z,1010.53
2018-10-01T00:06:39.781Z,1010.57
2018-10-01T00:07:39.817Z,1010.60
2018-10-01T00:08:39.834Z,1010.59
2018-10-01T00:09:39.859Z,1010.62
2018-10-01T00:10:39.884Z,1010.67
2018-10-01T00:11:39.912Z,1010.63
2018-10-01T00:12:39.939Z,1010.64
2018-10-01T00:13:39.962Z,1010.59
2018-10-01T00:14:39.975Z,1010.57
2018-10-01T00:15:40.006Z,1010.51
2018-10-01T00:16:40.045Z,1010.51
2018-10-01T00:17:40.059Z,1010.51
2018-10-01T00:18:40.075Z,1010.50
2018-10-01T00:19:40.101Z,1010.48
2018-10-01T00:20:40.119Z,1010.45
2018-10-01T00:21:40.143Z,1010.43
2018-10-01T00:22:40.169Z,1010.39
2018-10-01T00:23:40.203Z,1010.37
2018-10-01T00:24:40.230Z,1010.38
2018-10-01T00:25:40.236Z,1010.39
2018-10-01T00:26:40.266Z,1010.37
2018-10-01T00:27:40.290Z,1010.36
2018-10-01T00:28:40.313Z,1010.39
2018-10-01T00:29:40.336Z,1010.37
2018-10-01T00:30:40.357Z,1010.36
2018-10-01T00:31:40.385Z,1010.39
2018-10-01T00:32:40.424Z,1010.44
2018-10-01T00:33:40.445Z,1010.50
2018-10-01T00:34:40.456Z,1010.53
2018-10-01T00:35:40.480Z,1010.54
2018-10-01T00:36:40.506Z,1010.58
2018-10-01T00:37:40.526Z,1010.63
2018-10-01T00:38:40.553Z,1010.62
2018-10-01T00:39:40.595Z,1010.60
2018-10-01T00:40:40.604Z,1010.56
2018-10-01T00:41:40.627Z,1010.55
2018-10-01T00:42:40.647Z,1010.54
2018-10-01T00:43:40.671Z,1010.57
2018-10-01T00:44:40.696Z,1010.57
2018-10-01T00:45:40.718Z,1010.56
2018-10-01T00:46:40.744Z,1010.57
2018-10-01T00:47:40.760Z,1010.56
2018-10-01T00:48:40.791Z,1010.57
2018-10-01T00:49:40.818Z,1010.57
2018-10-01T00:50:40.838Z,1010.58
2018-10-01T00:51:40.862Z,1010.49
2018-10-01T00:52:40.886Z,1010.57
2018-10-01T00:53:40.914Z,1010.59
2018-10-01T00:54:40.932Z,1010.56
2018-10-01T00:55:40.957Z,1010.55
2018-10-01T00:56:40.986Z,1010.51
2018-10-01T00:57:41.004Z,1010.54
2018-10-01T00:58:41.029Z,1010.55
2018-10-01T00:59:41.052Z,1010.56
2018-10-01T01:00:41.073Z,1010.63
2018-10-01T01:01:41.096Z,1010.58
2018-10-01T01:02:41.127Z,1010.61
2018-10-01T01:03:41.162Z,1010.61
2018-10-01T01:04:41.176Z,1010.53
2018-10-01T01:05:41.202Z,1010.59
2018-10-01T01:06:41.222Z,1010.53
2018-10-01T01:07:41.243Z,1010.57
2018-10-01T01:08:41.279Z,1010.56
2018-10-01T01:09:41.293Z,1010.57
2018-10-01T01:10:41.317Z,1010.57
2018-10-01T01:11:41.336Z,1010.59
2018-10-01T01:12:41.376Z,1010.57
2018-10-01T01:13:41.398Z,1010.61
2018-10-01T01:14:41.409Z,1010.62
2018-10-01T01:15:41.453Z,1010.60
2018-10-01T01:16:41.461Z,1010.66
2018-10-01T01:17:41.477Z,1010.66
2018-10-01T01:18:41.505Z,1010.66
2018-10-01T01:19:41.534Z,1010.62
2018-10-01T01:20:41.556Z,1010.57
2018-10-01T01:21:41.583Z,1010.57
2018-10-01T01:22:41.602Z,1010.54
2018-10-01T01:23:41.628Z,1010.61
2018-10-01T01:24:41.649Z,1010.60
2018-10-01T01:25:41.676Z,1010.55
2018-10-01T01:26:41.699Z,1010.54
2018-10-01T01:27:41.722Z,1010.52
2018-10-01T01:28:41.745Z,1010.49
2018-10-01T01:29:41.772Z,1010.50
2018-10-01T01:30:41.804Z,1010.50
2018-10-01T01:31:41.825Z,1010.47
2018-10-01T01:32:41.834Z,1010.52
2018-10-01T01:33:41.876Z,1010.48
2018-10-01T01:34:41.893Z,1010.49
2018-10-01T01:35:41.917Z,1010.50
2018-10-01T01:36:41.936Z,1010.53
2018-10-01T01:37:41.961Z,1010.55
2018-10-01T01:38:42.011Z,1010.56
2018-10-01T01:39:42.013Z,1010.53
2018-10-01T01:40:42.030Z,1010.54
2018-10-01T01:41:42.057Z,1010.55
2018-10-01T01:42:42.080Z,1010.56
2018-10-01T01:43:42.102Z,1010.60
2018-10-01T01:44:42.129Z,1010.61
2018-10-01T01:45:42.155Z,1010.61
2018-10-01T01:46:42.175Z,1010.59
2018-10-01T01:47:42.200Z,1010.60
2018-10-01T01:48:42.221Z,1010.61
2018-10-01T01:49:42.252Z,1010.58
2018-10-01T01:50:42.301Z,1010.57
2018-10-01T01:51:42.295Z,1010.57
2018-10-01T01:52:42.319Z,1010.57
2018-10-01T01:53:42.343Z,1010.54
2018-10-01T01:54:42.366Z,1010.56
2018-10-01T01:55:42.390Z,1010.57
2018-10-01T01:56:42.413Z,1010.49
2018-10-01T01:57:42.440Z,1010.51
2018-10-01T01:58:42.461Z,1010.49
2018-10-01T01:59:42.482Z,1010.46
2018-10-01T02:00:42.511Z,1010.46
2018-10-01T02:01:42.533Z,1010.46
2018-10-01T02:02:42.556Z,1010.49
2018-10-01T02:03:42.572Z,1010.47
2018-10-01T02:04:42.603Z,1010.48
2018-10-01T02:05:42.632Z,1010.49
2018-10-01T02:06:42.654Z,1010.46
2018-10-01T02:07:42.676Z,1010.43
2018-10-01T02:08:42.700Z,1010.43
2018-10-01T02:09:42.721Z,1010.41
2018-10-01T02:10:42.748Z,1010.38
2018-10-01T02:11:42.778Z,1010.39
2018-10-01T02:12:42.803Z,1010.40
2018-10-01T02:13:42.837Z,1010.36
2018-10-01T02:14:42.844Z,1010.35
2018-10-01T02:15:42.866Z,1010.39
2018-10-01T02:16:42.893Z,1010.39
2018-10-01T02:17:42.913Z,1010.40
2018-10-01T02:18:42.940Z,1010.39
2018-10-01T02:19:42.964Z,1010.34
2018-10-01T02:20:42.991Z,1010.43
2018-10-01T02:21:43.014Z,1010.37
2018-10-01T02:22:43.052Z,1010.38
2018-10-01T02:23:43.061Z,1010.37
2018-10-01T02:24:43.076Z,1010.40
2018-10-01T02:25:43.122Z,1010.38
2018-10-01T02:26:43.131Z,1010.41
2018-10-01T02:27:43.157Z,1010.35
2018-10-01T02:28:43.177Z,1010.39
2018-10-01T02:29:43.201Z,1010.36
2018-10-01T02:30:43.225Z,1010.38
2018-10-01T02:31:43.264Z,1010.39
2018-10-01T02:32:43.275Z,1010.38
2018-10-01T02:33:43.302Z,1010.39
2018-10-01T02:34:43.324Z,1010.44
2018-10-01T02:35:43.343Z,1010.43
2018-10-01T02:36:43.373Z,1010.45
2018-10-01T02:37:43.388Z,1010.45
2018-10-01T02:38:43.418Z,1010.45
2018-10-01T02:39:43.462Z,1010.41
2018-10-01T02:40:43.466Z,1010.40
2018-10-01T02:41:43.487Z,1010.38
2018-10-01T02:42:43.527Z,1010.41
2018-10-01T02:43:43.552Z,1010.38
2018-10-01T02:44:43.561Z,1010.40
2018-10-01T02:45:43.645Z,1010.39
2018-10-01T02:46:43.608Z,1010.41
2018-10-01T02:47:43.709Z,1010.41
2018-10-01T02:48:43.658Z,1010.39
2018-10-01T02:49:43.682Z,1010.39
2018-10-01T02:50:43.701Z,1010.40
2018-10-01T02:51:43.730Z,1010.39
2018-10-01T02:52:43.754Z,1010.40
2018-10-01T02:53:43.774Z,1010.40
2018-10-01T02:54:43.797Z,1010.40
2018-10-01T02:55:43.822Z,1010.41
2018-10-01T02:56:43.852Z,1010.41
2018-10-01T02:57:43.874Z,1010.43
2018-10-01T02:58:43.896Z,1010.44
2018-10-01T02:59:43.915Z,1010.43
2018-10-01T03:00:43.952Z,1010.31
2018-10-01T03:01:43.971Z,1010.33
2018-10-01T03:02:43.993Z,1010.35
2018-10-01T03:03:44.016Z,1010.38
2018-10-01T03:04:44.039Z,1010.35
2018-10-01T03:05:44.056Z,1010.37
2018-10-01T03:06:44.080Z,1010.35
2018-10-01T03:07:44.110Z,1010.34
2018-10-01T03:08:44.132Z,1010.33
2018-10-01T03:09:44.154Z,1010.31
2018-10-01T03:10:44.181Z,1010.30
2018-10-01T03:11:44.205Z,1010.29
2018-10-01T03:12:44.228Z,1010.32
2018-10-01T03:13:44.255Z,1010.28
2018-10-01T03:14:44.291Z,1010.28
2018-10-01T03:15:44.305Z,1010.26
2018-10-01T03:16:44.346Z,1010.29
2018-10-01T03:17:44.364Z,1010.29
2018-10-01T03:18:44.369Z,1010.30
2018-10-01T03:19:44.394Z,1010.30
2018-10-01T03:20:44.422Z,1010.29
2018-10-01T03:21:44.446Z,1010.30
2018-10-01T03:22:44.472Z,1010.26
2018-10-01T03:23:44.496Z,1010.22
2018-10-01T03:24:44.513Z,1010.24
2018-10-01T03:25:44.540Z,1010.24
2018-10-01T03:26:44.560Z,1010.27
2018-10-01T03:27:44.587Z,1010.26
2018-10-01T03:28:44.604Z,1010.28
2018-10-01T03:29:44.630Z,1010.31
2018-10-01T03:30:44.660Z,1010.32
2018-10-01T03:31:44.687Z,1010.32
2018-10-01T03:32:44.709Z,1010.30
2018-10-01T03:33:44.751Z,1010.30
2018-10-01T03:34:44.759Z,1010.28
2018-10-01T03:35:44.789Z,1010.32
2018-10-01T03:36:44.812Z,1010.33
2018-10-01T03:37:44.824Z,1010.34
2018-10-01T03:38:44.851Z,1010.33
2018-10-01T03:39:44.898Z,1010.35
2018-10-01T03:40:44.901Z,1010.31
2018-10-01T03:41:44.928Z,1010.32
2018-10-01T03:42:44.948Z,1010.34
2018-10-01T03:43:44.985Z,1010.32
2018-10-01T03:44:44.996Z,1010.30
2018-10-01T03:45:45.022Z,1010.32
2018-10-01T03:46:45.041Z,1010.30
2018-10-01T03:47:45.064Z,1010.32
2018-10-01T03:48:45.092Z,1010.34
2018-10-01T03:49:45.108Z,1010.37
2018-10-01T03:50:45.160Z,1010.38
2018-10-01T03:51:45.172Z,1010.36
2018-10-01T03:52:45.193Z,1010.34
2018-10-01T03:53:45.207Z,1010.35
2018-10-01T03:54:45.233Z,1010.33
2018-10-01T03:55:45.255Z,1010.35
2018-10-01T03:56:45.286Z,1010.36
2018-10-01T03:57:45.324Z,1010.34
2018-10-01T03:58:45.329Z,1010.32
2018-10-01T03:59:45.359Z,1010.33
2018-10-01T04:00:45.372Z,1010.29
2018-10-01T04:01:45.395Z,1010.29
2018-10-01T04:02:45.423Z,1010.31
2018-10-01T04:03:45.451Z,1010.29
2018-10-01T04:04:45.490Z,1010.29
2018-10-01T04:05:45.497Z,1010.29
2018-10-01T04:06:45.521Z,1010.29
2018-10-01T04:07:45.548Z,1010.30
2018-10-01T04:08:45.644Z,1010.28
2018-10-01T04:09:45.592Z,1010.29
2018-10-01T04:10:45.629Z,1010.27
2018-10-01T04:11:45.641Z,1010.24
2018-10-01T04:12:45.658Z,1010.27
2018-10-01T04:13:45.688Z,1010.24
2018-10-01T04:14:45.714Z,1010.28
2018-10-01T04:15:45.739Z,1010.19
2018-10-01T04:16:45.763Z,1010.22
2018-10-01T04:17:45.792Z,1010.26
2018-10-01T04:18:45.827Z,1010.24
2018-10-01T04:19:45.831Z,1010.21
2018-10-01T04:20:45.866Z,1010.19
2018-10-01T04:21:45.876Z,1010.17
2018-10-01T04:22:45.927Z,1010.23
2018-10-01T04:23:45.929Z,1010.22
2018-10-01T04:24:45.955Z,1010.27
2018-10-01T04:25:45.984Z,1010.27
2018-10-01T04:26:45.999Z,1010.25
2018-10-01T04:27:46.028Z,1010.27
2018-10-01T04:28:46.048Z,1010.28
2018-10-01T04:29:46.073Z,1010.31
2018-10-01T04:30:46.094Z,1010.30
2018-10-01T04:31:46.126Z,1010.29
2018-10-01T04:32:46.147Z,1010.34
2018-10-01T04:33:46.160Z,1010.31
2018-10-01T04:34:46.194Z,1010.32
2018-10-01T04:35:46.216Z,1010.35
2018-10-01T04:36:46.243Z,1010.28
2018-10-01T04:37:46.260Z,1010.29
2018-10-01T04:38:46.289Z,1010.33
2018-10-01T04:39:46.314Z,1010.31
2018-10-01T04:40:46.352Z,1010.34
2018-10-01T04:41:46.377Z,1010.36
2018-10-01T04:42:46.386Z,1010.36
2018-10-01T04:43:46.403Z,1010.40
2018-10-01T04:44:46.443Z,1010.38
2018-10-01T04:45:46.461Z,1010.42
2018-10-01T04:46:46.529Z,1010.39
2018-10-01T04:47:46.517Z,1010.40
2018-10-01T04:48:46.532Z,1010.38
2018-10-01T04:49:46.555Z,1010.38
2018-10-01T04:50:46.574Z,1010.40
2018-10-01T04:51:46.628Z,1010.39
2018-10-01T04:52:46.651Z,1010.39
2018-10-01T04:53:46.644Z,1010.45
2018-10-01T04:54:46.671Z,1010.44
2018-10-01T04:55:46.712Z,1010.43
2018-10-01T04:56:46.735Z,1010.43
2018-10-01T04:57:46.742Z,1010.41
2018-10-01T04:58:46.782Z,1010.43
2018-10-01T04:59:46.794Z,1010.42
2018-10-01T05:00:46.810Z,1010.48
2018-10-01T05:01:46.845Z,1010.47
2018-10-01T05:02:46.885Z,1010.50
2018-10-01T05:03:46.908Z,1010.60
2018-10-01T05:04:46.912Z,1010.65
2018-10-01T05:05:46.937Z,1010.58
2018-10-01T05:06:46.960Z,1010.62
2018-10-01T05:07:46.976Z,1010.63
2018-10-01T05:08:47.048Z,1010.57
2018-10-01T05:09:47.029Z,1010.60
2018-10-01T05:10:47.063Z,1010.59
2018-10-01T05:11:47.078Z,1010.55
2018-10-01T05:12:47.106Z,1010.59
2018-10-01T05:13:47.151Z,1010.57
2018-10-01T05:14:47.204Z,1010.61
2018-10-01T05:15:47.173Z,1010.61
2018-10-01T05:16:47.202Z,1010.59
2018-10-01T05:17:47.228Z,1010.57
2018-10-01T05:18:47.250Z,1010.57
2018-10-01T05:19:47.284Z,1010.55
2018-10-01T05:20:47.301Z,1010.49
2018-10-01T05:21:47.328Z,1010.50
2018-10-01T05:22:47.343Z,1010.50
2018-10-01T05:23:47.370Z,1010.49
2018-10-01T05:24:47.391Z,1010.53
2018-10-01T05:25:47.428Z,1010.52
2018-10-01T05:26:47.444Z,1010.52
2018-10-01T05:27:47.464Z,1010.52
2018-10-01T05:28:47.503Z,1010.56
2018-10-01T05:29:47.518Z,1010.57
2018-10-01T05:30:47.556Z,1010.60
2018-10-01T05:31:47.561Z,1010.55
2018-10-01T05:32:47.587Z,1010.60
2018-10-01T05:33:47.624Z,1010.63
2018-10-01T05:34:47.651Z,1010.65
2018-10-01T05:35:47.662Z,1010.62
2018-10-01T05:36:47.683Z,1010.65
2018-10-01T05:37:47.751Z,1010.63
2018-10-01T05:38:47.733Z,1010.63
2018-10-01T05:39:47.778Z,1010.64
2018-10-01T05:40:47.780Z,1010.65
2018-10-01T05:41:47.818Z,1010.66
2018-10-01T05:42:47.827Z,1010.65
2018-10-01T05:43:47.854Z,1010.67
2018-10-01T05:44:47.875Z,1010.72
2018-10-01T05:45:47.905Z,1010.74
2018-10-01T05:46:47.923Z,1010.73
2018-10-01T05:47:47.944Z,1010.78
2018-10-01T05:48:47.970Z,1010.81
2018-10-01T05:49:47.994Z,1010.84
2018-10-01T05:50:48.019Z,1010.85
2018-10-01T05:51:48.041Z,1010.88
2018-10-01T05:52:48.068Z,1010.87
2018-10-01T05:53:48.090Z,1010.99
2018-10-01T05:54:48.121Z,1010.87
2018-10-01T05:55:48.138Z,1010.85
2018-10-01T05:56:48.178Z,1010.82
2018-10-01T05:57:48.207Z,1010.86
2018-10-01T05:58:48.209Z,1010.87
2018-10-01T05:59:48.242Z,1010.88
2018-10-01T06:00:48.258Z,1010.88
2018-10-01T06:01:48.281Z,1010.90
2018-10-01T06:02:48.305Z,1010.89
2018-10-01T06:03:48.330Z,1010.90
2018-10-01T06:04:48.430Z,1010.88
2018-10-01T06:05:48.375Z,1010.89
2018-10-01T06:06:48.421Z,1010.85
2018-10-01T06:07:48.426Z,1010.91
2018-10-01T06:08:48.452Z,1010.84
2018-10-01T06:09:48.478Z,1010.87
2018-10-01T06:10:48.501Z,1010.83
2018-10-01T06:11:48.585Z,1010.90
2018-10-01T06:12:48.582Z,1010.92
2018-10-01T06:13:50.088Z,1010.93
2018-10-01T06:14:48.602Z,1010.95
2018-10-01T06:15:48.627Z,1010.93
2018-10-01T06:16:48.638Z,1010.94
2018-10-01T06:17:48.674Z,1010.98
2018-10-01T06:18:48.696Z,1011.05
2018-10-01T06:19:48.735Z,1011.05
2018-10-01T06:20:48.746Z,1011.05
2018-10-01T06:21:48.767Z,1011.06
2018-10-01T06:22:48.792Z,1011.06
2018-10-01T06:23:48.824Z,1011.08
2018-10-01T06:24:48.844Z,1011.09
2018-10-01T06:25:48.855Z,1011.09
2018-10-01T06:26:48.906Z,1011.08
2018-10-01T06:27:48.921Z,1011.15
2018-10-01T06:28:48.936Z,1011.09
2018-10-01T06:29:48.960Z,1011.17
2018-10-01T06:30:48.986Z,1011.20
2018-10-01T06:31:48.998Z,1011.18
2018-10-01T06:32:49.032Z,1011.16
2018-10-01T06:33:49.053Z,1011.18
2018-10-01T06:34:49.076Z,1011.19
2018-10-01T06:35:49.099Z,1011.22
2018-10-01T06:36:49.127Z,1011.28
2018-10-01T06:37:49.145Z,1011.28
2018-10-01T06:38:49.202Z,1011.28
2018-10-01T06:39:49.208Z,1011.33
2018-10-01T06:40:49.220Z,1011.34
2018-10-01T06:41:49.302Z,1011.29
2018-10-01T06:42:49.337Z,1011.31
2018-10-01T06:43:49.303Z,1011.30
2018-10-01T06:44:49.318Z,1011.32
2018-10-01T06:45:49.341Z,1011.33
2018-10-01T06:46:49.360Z,1011.31
2018-10-01T06:47:49.390Z,1011.33
2018-10-01T06:48:49.416Z,1011.36
2018-10-01T06:49:49.447Z,1011.33
2018-10-01T06:50:49.523Z,1011.32
2018-10-01T06:51:49.490Z,1011.35
2018-10-01T06:52:49.517Z,1011.39
2018-10-01T06:53:49.542Z,1011.40
2018-10-01T06:54:49.567Z,1011.44
2018-10-01T06:55:49.589Z,1011.43
2018-10-01T06:56:49.618Z,1011.43
2018-10-01T06:57:49.652Z,1011.45
2018-10-01T06:58:49.665Z,1011.45
2018-10-01T06:59:49.690Z,1011.51
2018-10-01T07:00:49.715Z,1011.51
2018-10-01T07:01:49.740Z,1011.47
2018-10-01T07:02:49.768Z,1011.53
2018-10-01T07:03:49.790Z,1011.55
2018-10-01T07:04:49.816Z,1011.52
2018-10-01T07:05:50.022Z,1011.53
2018-10-01T07:06:49.866Z,1011.52
2018-10-01T07:07:49.892Z,1011.51
2018-10-01T07:08:49.917Z,1011.58
2018-10-01T07:09:49.944Z,1011.52
2018-10-01T07:10:49.968Z,1011.54
2018-10-01T07:11:49.992Z,1011.56
2018-10-01T07:12:50.019Z,1011.58
2018-10-01T07:13:50.043Z,1011.60
2018-10-01T07:14:50.070Z,1011.59
2018-10-01T07:15:50.090Z,1011.60
2018-10-01T07:16:50.194Z,1011.58
2018-10-01T07:17:50.147Z,1011.63
2018-10-01T07:18:50.210Z,1011.57
2018-10-01T07:19:50.185Z,1011.57
2018-10-01T07:20:50.220Z,1011.62
2018-10-01T07:21:50.238Z,1011.59
2018-10-01T07:22:50.366Z,1011.60
2018-10-01T07:23:50.288Z,1011.64
2018-10-01T07:24:50.314Z,1011.64
2018-10-01T07:25:50.339Z,1011.67
2018-10-01T07:26:50.364Z,1011.71
2018-10-01T07:27:50.387Z,1011.73
2018-10-01T07:28:50.411Z,1011.77
2018-10-01T07:29:50.436Z,1011.78
2018-10-01T07:30:50.461Z,1011.83
2018-10-01T07:31:50.485Z,1011.79
2018-10-01T07:32:50.511Z,1011.81
2018-10-01T07:33:50.541Z,1011.80
2018-10-01T07:34:50.559Z,1011.80
2018-10-01T07:35:50.584Z,1011.84
2018-10-01T07:36:50.608Z,1011.81
2018-10-01T07:37:50.640Z,1011.79
2018-10-01T07:38:50.707Z,1011.77
2018-10-01T07:39:50.681Z,1011.80
2018-10-01T07:40:50.708Z,1011.80
2018-10-01T07:41:50.729Z,1011.86
2018-10-01T07:42:50.756Z,1011.84
2018-10-01T07:43:50.783Z,1011.81
2018-10-01T07:44:50.851Z,1011.87
2018-10-01T07:45:50.827Z,1011.85
2018-10-01T07:46:50.856Z,1011.87
2018-10-01T07:47:50.874Z,1011.83
2018-10-01T07:48:50.903Z,1011.89
2018-10-01T07:49:50.926Z,1011.87
2018-10-01T07:50:51.057Z,1011.86
2018-10-01T07:51:50.980Z,1011.86
2018-10-01T07:52:50.999Z,1011.87
2018-10-01T07:53:51.024Z,1011.88
2018-10-01T07:54:51.064Z,1011.86
2018-10-01T07:55:51.073Z,1011.88
2018-10-01T07:56:51.096Z,1011.89
2018-10-01T07:57:51.121Z,1011.89
2018-10-01T07:58:51.145Z,1011.87
2018-10-01T07:59:51.296Z,1011.86
2018-10-01T08:00:51.201Z,1011.86
2018-10-01T08:01:51.217Z,1011.86
2018-10-01T08:02:51.242Z,1011.85
2018-10-01T08:03:51.269Z,1011.81
2018-10-01T08:04:51.293Z,1011.85
2018-10-01T08:05:54.574Z,1011.84
2018-10-01T08:06:51.973Z,1011.83
2018-10-01T08:07:54.619Z,1011.86
2018-10-01T08:08:51.434Z,1011.85
2018-10-01T08:09:51.444Z,1011.89
2018-10-01T08:10:51.438Z,1011.89
2018-10-01T08:11:51.466Z,1011.90
2018-10-01T08:12:51.489Z,1011.90
2018-10-01T08:13:51.511Z,1011.93
2018-10-01T08:14:51.536Z,1011.91
2018-10-01T08:15:51.618Z,1011.92
2018-10-01T08:16:51.585Z,1011.93
2018-10-01T08:17:51.610Z,1011.87
2018-10-01T08:18:51.637Z,1011.84
2018-10-01T08:19:51.659Z,1011.89
2018-10-01T08:20:51.685Z,1011.90
2018-10-01T08:21:51.708Z,1011.89
2018-10-01T08:22:51.731Z,1011.87
2018-10-01T08:23:51.756Z,1011.88
2018-10-01T08:24:51.781Z,1011.92
2018-10-01T08:25:51.806Z,1011.94
2018-10-01T08:26:51.830Z,1011.93
2018-10-01T08:27:51.855Z,1011.91
2018-10-01T08:28:51.884Z,1011.89
2018-10-01T08:29:52.154Z,1011.94
2018-10-01T08:30:51.927Z,1011.92
2018-10-01T08:31:51.959Z,1011.98
2018-10-01T08:32:51.976Z,1011.94
2018-10-01T08:33:52.002Z,1011.96
2018-10-01T08:34:52.022Z,1011.96
2018-10-01T08:35:52.066Z,1011.95
2018-10-01T08:36:52.078Z,1012.02
2018-10-01T08:37:52.151Z,1011.97
2018-10-01T08:38:52.125Z,1012.04
2018-10-01T08:39:52.162Z,1012.06
2018-10-01T08:40:52.171Z,1012.12
2018-10-01T08:41:52.194Z,1012.01
2018-10-01T08:42:52.219Z,1012.03
2018-10-01T08:43:52.244Z,1012.06
2018-10-01T08:44:52.269Z,1012.11
2018-10-01T08:45:52.292Z,1012.10
2018-10-01T08:46:52.323Z,1012.16
2018-10-01T08:47:52.343Z,1012.21
2018-10-01T08:48:52.367Z,1012.19
2018-10-01T08:49:52.391Z,1012.20
2018-10-01T08:50:52.417Z,1012.18
2018-10-01T08:51:52.526Z,1012.25
2018-10-01T08:52:52.463Z,1012.26
2018-10-01T08:53:52.494Z,1012.24
2018-10-01T08:54:52.538Z,1012.30
2018-10-01T08:55:52.536Z,1012.24
2018-10-01T08:56:52.562Z,1012.31
2018-10-01T08:57:52.589Z,1012.25
2018-10-01T08:58:52.611Z,1012.30
2018-10-01T08:59:52.633Z,1012.26
2018-10-01T09:00:52.659Z,1012.29
2018-10-01T09:01:52.684Z,1012.28
2018-10-01T09:02:52.709Z,1012.27
2018-10-01T09:03:52.732Z,1012.25
2018-10-01T09:04:52.755Z,1012.28
2018-10-01T09:05:52.784Z,1012.28
2018-10-01T09:06:52.865Z,1012.25
2018-10-01T09:07:52.830Z,1012.30
2018-10-01T09:08:52.856Z,1012.33
2018-10-01T09:09:52.879Z,1012.28
2018-10-01T09:10:52.902Z,1012.29
2018-10-01T09:11:52.928Z,1012.28
2018-10-01T09:12:52.951Z,1012.24
2018-10-01T09:13:52.974Z,1012.32
2018-10-01T09:14:53.079Z,1012.30
2018-10-01T09:15:53.024Z,1012.32
2018-10-01T09:16:53.047Z,1012.36
2018-10-01T09:17:53.072Z,1012.35
2018-10-01T09:18:53.097Z,1012.37
2018-10-01T09:19:53.121Z,1012.36
2018-10-01T09:20:53.156Z,1012.34
2018-10-01T09:21:53.172Z,1012.32
2018-10-01T09:22:53.194Z,1012.38
2018-10-01T09:23:53.217Z,1012.36
2018-10-01T09:24:53.245Z,1012.38
2018-10-01T09:25:53.271Z,1012.40
2018-10-01T09:26:53.289Z,1012.35
2018-10-01T09:27:53.316Z,1012.32
2018-10-01T09:28:53.340Z,1012.34
2018-10-01T09:29:53.365Z,1012.39
2018-10-01T09:30:53.400Z,1012.28
2018-10-01T09:31:53.413Z,1012.33
2018-10-01T09:32:53.442Z,1012.36
2018-10-01T09:33:53.462Z,1012.41
2018-10-01T09:34:53.488Z,1012.40
2018-10-01T09:35:53.511Z,1012.40
2018-10-01T09:36:53.537Z,1012.29
2018-10-01T09:37:53.561Z,1012.48
2018-10-01T09:38:53.584Z,1012.48
2018-10-01T09:39:53.609Z,1012.51
2018-10-01T09:40:53.634Z,1012.56
2018-10-01T09:41:53.663Z,1012.58
2018-10-01T09:42:53.683Z,1012.55
2018-10-01T09:43:53.708Z,1012.65
2018-10-01T09:44:53.736Z,1012.62
2018-10-01T09:45:53.756Z,1012.63
2018-10-01T09:46:53.787Z,1012.62
2018-10-01T09:47:53.810Z,1012.62
2018-10-01T09:48:53.830Z,1012.66
2018-10-01T09:49:53.853Z,1012.62
2018-10-01T09:50:53.877Z,1012.64
2018-10-01T09:51:53.903Z,1012.66
2018-10-01T09:52:53.954Z,1012.65
2018-10-01T09:53:53.957Z,1012.63
2018-10-01T09:54:53.975Z,1012.67
2018-10-01T09:55:54.020Z,1012.60
2018-10-01T09:56:54.029Z,1012.66
2018-10-01T09:57:54.047Z,1012.65
2018-10-01T09:58:54.075Z,1012.67
2018-10-01T09:59:54.108Z,1012.65
2018-10-01T10:00:54.126Z,1012.68
2018-10-01T10:01:54.145Z,1012.69
2018-10-01T10:02:54.179Z,1012.69
2018-10-01T10:03:54.204Z,1012.71
2018-10-01T10:04:54.357Z,1012.68
2018-10-01T10:05:54.249Z,1012.68
2018-10-01T10:06:54.275Z,1012.70
2018-10-01T10:07:54.294Z,1012.73
2018-10-01T10:08:54.322Z,1012.68
2018-10-01T10:09:54.351Z,1012.69
2018-10-01T10:10:54.371Z,1012.62
2018-10-01T10:11:54.392Z,1012.68
2018-10-01T10:12:54.417Z,1012.65
2018-10-01T10:13:54.451Z,1012.71
2018-10-01T10:14:54.467Z,1012.68
2018-10-01T10:15:54.528Z,1012.74
2018-10-01T10:16:54.636Z,1012.81
2018-10-01T10:17:54.576Z,1012.72
2018-10-01T10:18:54.564Z,1012.81
2018-10-01T10:19:54.653Z,1012.73
2018-10-01T10:20:54.618Z,1012.81
2018-10-01T10:21:54.646Z,1012.79
2018-10-01T10:22:54.655Z,1012.82
2018-10-01T10:23:54.692Z,1012.81
2018-10-01T10:24:54.712Z,1012.86
2018-10-01T10:25:54.739Z,1012.88
2018-10-01T10:26:54.760Z,1012.84
2018-10-01T10:27:54.825Z,1012.94
2018-10-01T10:28:54.811Z,1012.87
2018-10-01T10:29:54.837Z,1012.90
2018-10-01T10:30:54.861Z,1012.88
2018-10-01T10:31:54.944Z,1012.92
2018-10-01T10:32:54.912Z,1012.92
2018-10-01T10:33:54.952Z,1012.90
2018-10-01T10:34:54.973Z,1012.97
2018-10-01T10:35:54.984Z,1012.97
2018-10-01T10:36:55.013Z,1012.97
2018-10-01T10:37:55.042Z,1012.97
2018-10-01T10:38:55.066Z,1012.97
2018-10-01T10:39:55.083Z,1013.01
2018-10-01T10:40:55.111Z,1012.95
2018-10-01T10:41:55.166Z,1013.02
2018-10-01T10:42:55.157Z,1013.03
2018-10-01T10:43:55.186Z,1012.96
2018-10-01T10:44:55.208Z,1013.04
2018-10-01T10:45:55.232Z,1013.04
2018-10-01T10:46:55.254Z,1013.23
2018-10-01T10:47:55.333Z,1013.19
2018-10-01T10:48:55.307Z,1013.28
2018-10-01T10:49:55.332Z,1013.27
2018-10-01T10:50:55.359Z,1013.29
2018-10-01T10:51:55.431Z,1013.34
2018-10-01T10:52:55.458Z,1013.36
2018-10-01T10:53:55.456Z,1013.27
2018-10-01T10:54:55.453Z,1013.36
2018-10-01T10:55:55.486Z,1013.41
2018-10-01T10:56:55.512Z,1013.40
2018-10-01T10:57:55.973Z,1013.46
2018-10-01T10:58:55.870Z,1013.40
2018-10-01T10:59:55.815Z,1013.36
2018-10-01T11:00:55.904Z,1013.35
2018-10-01T11:01:55.946Z,1013.37
2018-10-01T11:02:55.681Z,1013.34
2018-10-01T11:03:55.716Z,1013.31
2018-10-01T11:04:55.713Z,1013.34
2018-10-01T11:05:55.720Z,1013.34
2018-10-01T11:06:55.770Z,1013.32
2018-10-01T11:07:55.775Z,1013.32
2018-10-01T11:08:55.810Z,1013.34
2018-10-01T11:09:55.821Z,1013.33
2018-10-01T11:10:55.847Z,1013.30
2018-10-01T11:11:55.887Z,1013.25
2018-10-01T11:12:55.903Z,1013.25
2018-10-01T11:13:55.938Z,1013.24
2018-10-01T11:14:56.110Z,1013.23
2018-10-01T11:15:55.975Z,1013.25
2018-10-01T11:16:56.005Z,1013.26
2018-10-01T11:17:56.096Z,1013.30
2018-10-01T11:18:56.232Z,1013.29
2018-10-01T11:19:56.122Z,1013.33
2018-10-01T11:20:56.148Z,1013.34
2018-10-01T11:21:56.130Z,1013.33
2018-10-01T11:22:56.163Z,1013.29
2018-10-01T11:23:56.180Z,1013.33
2018-10-01T11:24:56.198Z,1013.33
2018-10-01T11:25:56.223Z,1013.37
2018-10-01T11:26:56.286Z,1013.40
2018-10-01T11:27:56.383Z,1013.38
2018-10-01T11:28:56.365Z,1013.41
2018-10-01T11:29:56.318Z,1013.45
2018-10-01T11:30:56.347Z,1013.46
2018-10-01T11:31:56.553Z,1013.50
2018-10-01T11:32:56.508Z,1013.48
2018-10-01T11:33:56.422Z,1013.55
2018-10-01T11:34:56.533Z,1013.54
2018-10-01T11:35:56.488Z,1013.57
2018-10-01T11:36:56.503Z,1013.55
2018-10-01T11:37:57.223Z,1013.63
2018-10-01T11:38:56.566Z,1013.61
2018-10-01T11:39:56.568Z,1013.59
2018-10-01T11:40:56.602Z,1013.61
2018-10-01T11:41:56.621Z,1013.61
2018-10-01T11:42:56.651Z,1013.61
2018-10-01T11:43:56.665Z,1013.64
2018-10-01T11:44:56.751Z,1013.60
2018-10-01T11:45:56.723Z,1013.56
2018-10-01T11:46:56.742Z,1013.59
2018-10-01T11:47:56.771Z,1013.60
2018-10-01T11:48:56.795Z,1013.58
2018-10-01T11:49:56.819Z,1013.59
2018-10-01T11:50:56.872Z,1013.57
2018-10-01T11:51:56.867Z,1013.58
2018-10-01T11:52:56.898Z,1013.58
2018-10-01T11:53:56.922Z,1013.59
2018-10-01T11:54:56.948Z,1013.58
2018-10-01T11:55:56.979Z,1013.61
2018-10-01T11:56:56.999Z,1013.58
2018-10-01T11:57:57.020Z,1013.56
2018-10-01T11:58:57.044Z,1013.54
2018-10-01T11:59:57.072Z,1013.45
2018-10-01T12:00:57.092Z,1013.48
2018-10-01T12:01:57.112Z,1013.51
2018-10-01T12:02:57.245Z,1013.51
2018-10-01T12:03:57.215Z,1013.51
2018-10-01T12:04:57.198Z,1013.58
2018-10-01T12:05:57.222Z,1013.62